sensor_id;sensor_type;location;lat;lon;timestamp;P1;durP1;ratioP1;P2;durP2;ratioP2
61336;SDS011;47212;41.326;2.104;2023-05-24T00:04:24;15.93;;;9.57;;
61336;SDS011;47212;41.326;2.104;2023-05-24T00:09:31;10.90;;;9.10;;
61336;SDS011;47212;41.326;2.104;2023-05-24T00:14:33;11.95;;;7.85;;
61336;SDS011;47212;41.326;2.104;2023-05-24T00:19:35;11.93;;;9.05;;
61336;SDS011;47212;41.326;2.104;2023-05-24T00:24:39;14.18;;;9.85;;
61336;SDS011;47212;41.326;2.104;2023-05-24T00:29:44;12.02;;;8.95;;
61336;SDS011;47212;41.326;2.104;2023-05-24T00:34:47;11.63;;;9.38;;
61336;SDS011;47212;41.326;2.104;2023-05-24T00:39:51;11.07;;;8.77;;
61336;SDS011;47212;41.326;2.104;2023-05-24T00:44:53;13.02;;;11.30;;
61336;SDS011;47212;41.326;2.104;2023-05-24T00:49:55;14.60;;;11.27;;
61336;SDS011;47212;41.326;2.104;2023-05-24T00:54:57;15.45;;;10.13;;
61336;SDS011;47212;41.326;2.104;2023-05-24T00:59:59;14.57;;;10.40;;
61336;SDS011;47212;41.326;2.104;2023-05-24T02:05:18;12.48;;;8.35;;
61336;SDS011;47212;41.326;2.104;2023-05-24T02:10:22;11.68;;;8.05;;
61336;SDS011;47212;41.326;2.104;2023-05-24T02:15:24;14.18;;;9.00;;
61336;SDS011;47212;41.326;2.104;2023-05-24T02:22:25;12.40;;;9.48;;
61336;SDS011;47212;41.326;2.104;2023-05-24T02:27:28;12.68;;;9.02;;
61336;SDS011;47212;41.326;2.104;2023-05-24T02:32:30;13.30;;;8.88;;
61336;SDS011;47212;41.326;2.104;2023-05-24T02:37:33;14.10;;;8.68;;
61336;SDS011;47212;41.326;2.104;2023-05-24T02:42:35;13.85;;;8.93;;
61336;SDS011;47212;41.326;2.104;2023-05-24T02:47:37;14.10;;;9.35;;
61336;SDS011;47212;41.326;2.104;2023-05-24T02:52:39;13.68;;;8.93;;
61336;SDS011;47212;41.326;2.104;2023-05-24T02:57:42;14.07;;;10.05;;
61336;SDS011;47212;41.326;2.104;2023-05-24T03:02:45;15.23;;;8.60;;
61336;SDS011;47212;41.326;2.104;2023-05-24T03:07:48;11.40;;;8.50;;
61336;SDS011;47212;41.326;2.104;2023-05-24T03:12:56;13.77;;;8.95;;
61336;SDS011;47212;41.326;2.104;2023-05-24T03:17:58;13.95;;;9.52;;
61336;SDS011;47212;41.326;2.104;2023-05-24T03:23:00;13.05;;;9.45;;
61336;SDS011;47212;41.326;2.104;2023-05-24T03:28:05;15.07;;;10.77;;
61336;SDS011;47212;41.326;2.104;2023-05-24T03:33:08;16.23;;;10.45;;
61336;SDS011;47212;41.326;2.104;2023-05-24T03:38:10;14.10;;;10.25;;
61336;SDS011;47212;41.326;2.104;2023-05-24T03:43:14;15.25;;;9.25;;
61336;SDS011;47212;41.326;2.104;2023-05-24T03:48:30;11.65;;;8.98;;
61336;SDS011;47212;41.326;2.104;2023-05-24T03:53:35;11.32;;;8.63;;
61336;SDS011;47212;41.326;2.104;2023-05-24T03:58:37;17.48;;;9.35;;
61336;SDS011;47212;41.326;2.104;2023-05-24T04:03:39;13.85;;;9.98;;
61336;SDS011;47212;41.326;2.104;2023-05-24T04:13:54;13.07;;;8.55;;
61336;SDS011;47212;41.326;2.104;2023-05-24T04:18:57;11.75;;;8.13;;
61336;SDS011;47212;41.326;2.104;2023-05-24T04:24:03;11.52;;;8.43;;
61336;SDS011;47212;41.326;2.104;2023-05-24T04:29:05;12.35;;;9.38;;
61336;SDS011;47212;41.326;2.104;2023-05-24T04:34:09;16.40;;;9.95;;
61336;SDS011;47212;41.326;2.104;2023-05-24T04:39:13;14.10;;;8.98;;
61336;SDS011;47212;41.326;2.104;2023-05-24T04:44:16;14.13;;;8.52;;
61336;SDS011;47212;41.326;2.104;2023-05-24T04:49:18;14.02;;;9.23;;
61336;SDS011;47212;41.326;2.104;2023-05-24T04:54:20;13.00;;;9.05;;
61336;SDS011;47212;41.326;2.104;2023-05-24T04:59:22;10.13;;;8.18;;
61336;SDS011;47212;41.326;2.104;2023-05-24T05:04:25;11.02;;;7.95;;
61336;SDS011;47212;41.326;2.104;2023-05-24T05:09:27;12.73;;;8.52;;
61336;SDS011;47212;41.326;2.104;2023-05-24T05:19:30;10.25;;;6.57;;
61336;SDS011;47212;41.326;2.104;2023-05-24T05:24:33;10.07;;;6.63;;
61336;SDS011;47212;41.326;2.104;2023-05-24T05:29:35;11.13;;;7.05;;
61336;SDS011;47212;41.326;2.104;2023-05-24T05:34:37;10.80;;;6.85;;
61336;SDS011;47212;41.326;2.104;2023-05-24T05:39:39;8.52;;;5.97;;
61336;SDS011;47212;41.326;2.104;2023-05-24T05:49:43;11.65;;;6.75;;
61336;SDS011;47212;41.326;2.104;2023-05-24T05:54:46;11.00;;;6.90;;
61336;SDS011;47212;41.326;2.104;2023-05-24T05:59:48;10.95;;;7.32;;
61336;SDS011;47212;41.326;2.104;2023-05-24T06:04:50;11.10;;;6.80;;
61336;SDS011;47212;41.326;2.104;2023-05-24T06:09:55;8.88;;;6.60;;
61336;SDS011;47212;41.326;2.104;2023-05-24T06:14:57;8.30;;;5.72;;
61336;SDS011;47212;41.326;2.104;2023-05-24T06:20:00;11.45;;;5.65;;
61336;SDS011;47212;41.326;2.104;2023-05-24T06:25:02;8.10;;;6.32;;
61336;SDS011;47212;41.326;2.104;2023-05-24T06:30:06;10.70;;;5.40;;
61336;SDS011;47212;41.326;2.104;2023-05-24T06:35:09;12.48;;;8.40;;
61336;SDS011;47212;41.326;2.104;2023-05-24T06:40:11;12.43;;;8.98;;
61336;SDS011;47212;41.326;2.104;2023-05-24T06:45:13;9.32;;;6.95;;
61336;SDS011;47212;41.326;2.104;2023-05-24T06:50:17;11.63;;;6.32;;
61336;SDS011;47212;41.326;2.104;2023-05-24T06:55:19;7.47;;;5.40;;
61336;SDS011;47212;41.326;2.104;2023-05-24T07:00:21;7.30;;;5.03;;
61336;SDS011;47212;41.326;2.104;2023-05-24T07:05:24;8.18;;;5.03;;
61336;SDS011;47212;41.326;2.104;2023-05-24T07:10:25;7.50;;;5.18;;
61336;SDS011;47212;41.326;2.104;2023-05-24T07:15:28;9.18;;;4.43;;
61336;SDS011;47212;41.326;2.104;2023-05-24T07:20:30;6.88;;;4.97;;
61336;SDS011;47212;41.326;2.104;2023-05-24T07:25:32;6.68;;;4.72;;
61336;SDS011;47212;41.326;2.104;2023-05-24T07:30:34;6.93;;;4.47;;
61336;SDS011;47212;41.326;2.104;2023-05-24T07:35:36;8.73;;;5.03;;
61336;SDS011;47212;41.326;2.104;2023-05-24T07:40:39;7.55;;;3.78;;
61336;SDS011;47212;41.326;2.104;2023-05-24T07:45:41;5.35;;;3.92;;
61336;SDS011;47212;41.326;2.104;2023-05-24T07:50:43;6.28;;;4.20;;
61336;SDS011;47212;41.326;2.104;2023-05-24T07:55:49;8.52;;;4.70;;
61336;SDS011;47212;41.326;2.104;2023-05-24T08:00:52;7.97;;;4.55;;
61336;SDS011;47212;41.326;2.104;2023-05-24T08:05:54;6.13;;;3.83;;
61336;SDS011;47212;41.326;2.104;2023-05-24T08:10:56;5.20;;;4.15;;
61336;SDS011;47212;41.326;2.104;2023-05-24T08:15:58;9.27;;;4.40;;
61336;SDS011;47212;41.326;2.104;2023-05-24T08:21:01;6.60;;;3.63;;
61336;SDS011;47212;41.326;2.104;2023-05-24T08:26:03;8.93;;;3.97;;
61336;SDS011;47212;41.326;2.104;2023-05-24T08:31:05;5.93;;;4.20;;
61336;SDS011;47212;41.326;2.104;2023-05-24T08:36:08;5.57;;;4.00;;
61336;SDS011;47212;41.326;2.104;2023-05-24T08:41:10;6.13;;;4.40;;
61336;SDS011;47212;41.326;2.104;2023-05-24T08:46:16;7.30;;;4.13;;
61336;SDS011;47212;41.326;2.104;2023-05-24T08:51:18;7.18;;;4.50;;
61336;SDS011;47212;41.326;2.104;2023-05-24T08:56:21;14.63;;;4.07;;
61336;SDS011;47212;41.326;2.104;2023-05-24T09:01:23;7.78;;;4.75;;
61336;SDS011;47212;41.326;2.104;2023-05-24T09:06:29;7.15;;;4.10;;
61336;SDS011;47212;41.326;2.104;2023-05-24T09:11:31;3.90;;;3.30;;
61336;SDS011;47212;41.326;2.104;2023-05-24T09:16:34;4.22;;;3.50;;
61336;SDS011;47212;41.326;2.104;2023-05-24T09:21:37;6.95;;;3.65;;
61336;SDS011;47212;41.326;2.104;2023-05-24T09:26:39;6.13;;;3.85;;
61336;SDS011;47212;41.326;2.104;2023-05-24T09:31:41;7.50;;;4.35;;
61336;SDS011;47212;41.326;2.104;2023-05-24T09:36:44;5.80;;;3.83;;
61336;SDS011;47212;41.326;2.104;2023-05-24T09:41:53;6.90;;;4.22;;
61336;SDS011;47212;41.326;2.104;2023-05-24T09:47:00;4.60;;;3.90;;
61336;SDS011;47212;41.326;2.104;2023-05-24T09:52:07;6.30;;;4.20;;
61336;SDS011;47212;41.326;2.104;2023-05-24T09:57:09;6.20;;;3.72;;
61336;SDS011;47212;41.326;2.104;2023-05-24T10:02:11;6.32;;;4.13;;
61336;SDS011;47212;41.326;2.104;2023-05-24T10:07:14;6.13;;;4.68;;
61336;SDS011;47212;41.326;2.104;2023-05-24T10:12:16;22.60;;;9.13;;
61336;SDS011;47212;41.326;2.104;2023-05-24T10:17:26;8.60;;;6.05;;
61336;SDS011;47212;41.326;2.104;2023-05-24T10:22:29;9.18;;;5.55;;
61336;SDS011;47212;41.326;2.104;2023-05-24T10:27:33;8.27;;;5.00;;
61336;SDS011;47212;41.326;2.104;2023-05-24T10:32:37;8.32;;;5.68;;
61336;SDS011;47212;41.326;2.104;2023-05-24T10:37:43;7.20;;;4.50;;
61336;SDS011;47212;41.326;2.104;2023-05-24T10:42:50;6.03;;;4.43;;
61336;SDS011;47212;41.326;2.104;2023-05-24T10:47:56;8.38;;;5.03;;
61336;SDS011;47212;41.326;2.104;2023-05-24T10:58:26;5.93;;;5.20;;
61336;SDS011;47212;41.326;2.104;2023-05-24T11:03:32;7.43;;;4.50;;
61336;SDS011;47212;41.326;2.104;2023-05-24T11:08:45;9.95;;;5.20;;
61336;SDS011;47212;41.326;2.104;2023-05-24T11:13:47;7.95;;;5.60;;
61336;SDS011;47212;41.326;2.104;2023-05-24T11:18:58;11.63;;;5.13;;
61336;SDS011;47212;41.326;2.104;2023-05-24T11:24:17;7.63;;;4.95;;
61336;SDS011;47212;41.326;2.104;2023-05-24T11:29:23;6.97;;;4.53;;
61336;SDS011;47212;41.326;2.104;2023-05-24T11:34:25;8.15;;;4.57;;
61336;SDS011;47212;41.326;2.104;2023-05-24T11:39:33;7.82;;;4.90;;
61336;SDS011;47212;41.326;2.104;2023-05-24T11:44:40;5.47;;;4.25;;
61336;SDS011;47212;41.326;2.104;2023-05-24T11:49:42;6.88;;;4.82;;
61336;SDS011;47212;41.326;2.104;2023-05-24T11:54:44;6.82;;;5.18;;
61336;SDS011;47212;41.326;2.104;2023-05-24T11:59:46;9.10;;;4.78;;
61336;SDS011;47212;41.326;2.104;2023-05-24T12:04:48;12.45;;;5.95;;
61336;SDS011;47212;41.326;2.104;2023-05-24T12:09:51;6.18;;;5.28;;
61336;SDS011;47212;41.326;2.104;2023-05-24T12:14:54;5.88;;;4.68;;
61336;SDS011;47212;41.326;2.104;2023-05-24T12:19:57;7.07;;;3.65;;
61336;SDS011;47212;41.326;2.104;2023-05-24T12:24:59;9.02;;;4.18;;
61336;SDS011;47212;41.326;2.104;2023-05-24T12:30:05;6.82;;;3.90;;
61336;SDS011;47212;41.326;2.104;2023-05-24T12:35:10;7.88;;;5.18;;
61336;SDS011;47212;41.326;2.104;2023-05-24T12:40:18;5.75;;;4.40;;
61336;SDS011;47212;41.326;2.104;2023-05-24T12:45:22;6.88;;;4.10;;
61336;SDS011;47212;41.326;2.104;2023-05-24T12:50:26;5.82;;;3.70;;
61336;SDS011;47212;41.326;2.104;2023-05-24T12:55:29;4.47;;;3.53;;
61336;SDS011;47212;41.326;2.104;2023-05-24T13:00:34;5.15;;;3.85;;
61336;SDS011;47212;41.326;2.104;2023-05-24T13:05:36;5.10;;;3.70;;
61336;SDS011;47212;41.326;2.104;2023-05-24T13:10:38;6.15;;;3.53;;
61336;SDS011;47212;41.326;2.104;2023-05-24T13:15:41;12.30;;;10.13;;
61336;SDS011;47212;41.326;2.104;2023-05-24T13:20:45;7.07;;;4.50;;
61336;SDS011;47212;41.326;2.104;2023-05-24T13:25:47;6.40;;;3.70;;
61336;SDS011;47212;41.326;2.104;2023-05-24T13:30:51;4.88;;;2.90;;
61336;SDS011;47212;41.326;2.104;2023-05-24T13:35:54;6.43;;;3.10;;
61336;SDS011;47212;41.326;2.104;2023-05-24T13:40:56;5.07;;;3.03;;
61336;SDS011;47212;41.326;2.104;2023-05-24T13:45:59;4.63;;;2.80;;
61336;SDS011;47212;41.326;2.104;2023-05-24T13:51:01;6.85;;;3.67;;
61336;SDS011;47212;41.326;2.104;2023-05-24T13:56:04;6.45;;;4.75;;
61336;SDS011;47212;41.326;2.104;2023-05-24T14:01:06;8.20;;;4.20;;
61336;SDS011;47212;41.326;2.104;2023-05-24T14:06:09;6.03;;;3.92;;
61336;SDS011;47212;41.326;2.104;2023-05-24T14:11:12;5.57;;;3.58;;
61336;SDS011;47212;41.326;2.104;2023-05-24T14:16:15;6.22;;;3.58;;
61336;SDS011;47212;41.326;2.104;2023-05-24T14:21:19;7.05;;;4.00;;
61336;SDS011;47212;41.326;2.104;2023-05-24T14:26:27;8.35;;;4.03;;
61336;SDS011;47212;41.326;2.104;2023-05-24T14:31:30;17.20;;;12.07;;
61336;SDS011;47212;41.326;2.104;2023-05-24T14:36:34;8.48;;;5.93;;
61336;SDS011;47212;41.326;2.104;2023-05-24T14:41:46;5.93;;;4.18;;
61336;SDS011;47212;41.326;2.104;2023-05-24T18:30:07;5.45;;;3.28;;
61336;SDS011;47212;41.326;2.104;2023-05-24T18:35:10;8.88;;;4.15;;
61336;SDS011;47212;41.326;2.104;2023-05-24T18:40:14;8.95;;;4.00;;
61336;SDS011;47212;41.326;2.104;2023-05-24T18:45:17;8.18;;;3.53;;
61336;SDS011;47212;41.326;2.104;2023-05-24T18:50:20;9.80;;;4.40;;
61336;SDS011;47212;41.326;2.104;2023-05-24T18:55:24;7.85;;;3.65;;
61336;SDS011;47212;41.326;2.104;2023-05-24T19:00:26;9.85;;;4.03;;
61336;SDS011;47212;41.326;2.104;2023-05-24T19:05:28;7.20;;;3.65;;
61336;SDS011;47212;41.326;2.104;2023-05-24T19:10:30;4.82;;;3.60;;
61336;SDS011;47212;41.326;2.104;2023-05-24T19:15:36;4.40;;;3.45;;
61336;SDS011;47212;41.326;2.104;2023-05-24T19:20:45;6.78;;;4.05;;
61336;SDS011;47212;41.326;2.104;2023-05-24T19:25:47;8.60;;;4.22;;
61336;SDS011;47212;41.326;2.104;2023-05-24T19:30:50;7.65;;;3.50;;
61336;SDS011;47212;41.326;2.104;2023-05-24T19:35:53;7.38;;;3.78;;
61336;SDS011;47212;41.326;2.104;2023-05-24T19:40:55;7.07;;;3.85;;
61336;SDS011;47212;41.326;2.104;2023-05-24T19:45:59;6.85;;;3.85;;
61336;SDS011;47212;41.326;2.104;2023-05-24T19:51:12;7.63;;;3.63;;
61336;SDS011;47212;41.326;2.104;2023-05-24T19:56:16;7.50;;;3.70;;
61336;SDS011;47212;41.326;2.104;2023-05-24T20:01:20;8.05;;;3.92;;
61336;SDS011;47212;41.326;2.104;2023-05-24T20:06:22;5.13;;;3.55;;
61336;SDS011;47212;41.326;2.104;2023-05-24T20:11:25;7.43;;;4.18;;
61336;SDS011;47212;41.326;2.104;2023-05-24T20:16:28;9.95;;;4.50;;
61336;SDS011;47212;41.326;2.104;2023-05-24T20:21:30;5.93;;;4.10;;
61336;SDS011;47212;41.326;2.104;2023-05-24T20:26:34;6.53;;;3.88;;
61336;SDS011;47212;41.326;2.104;2023-05-24T20:31:37;9.23;;;4.28;;
61336;SDS011;47212;41.326;2.104;2023-05-24T20:36:39;7.53;;;3.80;;
61336;SDS011;47212;41.326;2.104;2023-05-24T20:41:44;7.13;;;3.85;;
61336;SDS011;47212;41.326;2.104;2023-05-24T20:46:50;3.78;;;2.83;;
61336;SDS011;47212;41.326;2.104;2023-05-24T20:51:55;5.97;;;4.05;;
61336;SDS011;47212;41.326;2.104;2023-05-24T20:56:57;7.65;;;3.33;;
61336;SDS011;47212;41.326;2.104;2023-05-24T21:02:00;7.80;;;3.83;;
61336;SDS011;47212;41.326;2.104;2023-05-24T21:07:02;7.28;;;3.58;;
61336;SDS011;47212;41.326;2.104;2023-05-24T21:12:04;6.93;;;3.60;;
61336;SDS011;47212;41.326;2.104;2023-05-24T21:17:12;6.95;;;3.85;;
61336;SDS011;47212;41.326;2.104;2023-05-24T21:22:14;7.43;;;4.18;;
61336;SDS011;47212;41.326;2.104;2023-05-24T21:27:17;6.38;;;3.65;;
61336;SDS011;47212;41.326;2.104;2023-05-24T21:32:20;6.00;;;3.28;;
61336;SDS011;47212;41.326;2.104;2023-05-24T21:37:23;5.78;;;3.80;;
61336;SDS011;47212;41.326;2.104;2023-05-24T21:42:28;5.13;;;3.58;;
61336;SDS011;47212;41.326;2.104;2023-05-24T21:47:31;9.38;;;3.65;;
61336;SDS011;47212;41.326;2.104;2023-05-24T21:52:36;8.30;;;3.75;;
61336;SDS011;47212;41.326;2.104;2023-05-24T21:57:38;6.63;;;3.53;;
61336;SDS011;47212;41.326;2.104;2023-05-24T22:02:40;5.18;;;3.42;;
61336;SDS011;47212;41.326;2.104;2023-05-24T22:07:47;7.03;;;3.85;;
61336;SDS011;47212;41.326;2.104;2023-05-24T22:12:52;6.78;;;3.75;;
61336;SDS011;47212;41.326;2.104;2023-05-24T22:17:54;7.10;;;4.20;;
61336;SDS011;47212;41.326;2.104;2023-05-24T22:23:04;8.85;;;4.05;;
61336;SDS011;47212;41.326;2.104;2023-05-24T22:28:07;5.25;;;3.72;;
61336;SDS011;47212;41.326;2.104;2023-05-24T22:33:10;7.00;;;3.78;;
61336;SDS011;47212;41.326;2.104;2023-05-24T22:38:14;8.05;;;3.92;;
61336;SDS011;47212;41.326;2.104;2023-05-24T22:43:16;6.38;;;4.18;;
61336;SDS011;47212;41.326;2.104;2023-05-24T22:48:18;12.70;;;7.97;;
61336;SDS011;47212;41.326;2.104;2023-05-24T22:53:26;8.90;;;5.28;;
61336;SDS011;47212;41.326;2.104;2023-05-24T22:58:28;5.95;;;3.92;;
61336;SDS011;47212;41.326;2.104;2023-05-24T23:03:31;6.72;;;3.70;;
61336;SDS011;47212;41.326;2.104;2023-05-24T23:08:33;5.22;;;3.75;;
61336;SDS011;47212;41.326;2.104;2023-05-24T23:13:38;6.07;;;4.03;;
61336;SDS011;47212;41.326;2.104;2023-05-24T23:18:43;6.70;;;3.58;;
61336;SDS011;47212;41.326;2.104;2023-05-24T23:23:48;6.45;;;3.13;;
61336;SDS011;47212;41.326;2.104;2023-05-24T23:28:50;5.95;;;2.95;;
61336;SDS011;47212;41.326;2.104;2023-05-24T23:33:52;5.30;;;3.42;;
61336;SDS011;47212;41.326;2.104;2023-05-24T23:38:54;5.50;;;3.42;;
61336;SDS011;47212;41.326;2.104;2023-05-24T23:43:57;6.55;;;3.45;;
61336;SDS011;47212;41.326;2.104;2023-05-24T23:48:59;6.32;;;3.58;;
61336;SDS011;47212;41.326;2.104;2023-05-24T23:54:01;5.15;;;3.30;;
61336;SDS011;47212;41.326;2.104;2023-05-24T23:59:03;6.65;;;3.35;;
